This is the latest recevied weather packets stored in our database for station/object SP3PDK-1. If no packets are shown the sender has not sent any weather packets the latest 1 day(s).
| Time | Temp. | Humidity | Pressure | Rain* | Wind** | Luminosity | Snow |
|---|---|---|---|---|---|---|---|
| 1778101454 | 16.11° C | 10% | - | - | - | - | - |
| 1778100258 | 16.67° C | 97% | 1006.5 hPa | - | - | - | - |
| 1778094258 | 19.44° C | 71% | 1006.1 hPa | - | - | - | - |
| 1778093658 | 18.89° C | 72% | 1006 hPa | - | - | - | - |
| 1778090656 | 19.44° C | 75% | 1004.6 hPa | - | - | - | - |
| 1778087658 | 22.22° C | 52% | 1004 hPa | - | - | - | - |
| 1778084654 | 23.33° C | 44% | 1004.1 hPa | - | - | - | - |
| 1778083455 | 23.89° C | 43% | 1003.8 hPa | - | - | - | - |
| 1778081058 | 25° C | 41% | 1003.9 hPa | - | - | - | - |
| 1778078054 | 25.56° C | 36% | 1003.8 hPa | - | - | - | - |
| 1778077456 | 25.56° C | 36% | 1003.8 hPa | - | - | - | - |
| 1778073854 | 26.11° C | 36% | 1003.8 hPa | - | - | - | - |
| 1778073258 | 26.11° C | 37% | 1003.8 hPa | - | - | - | - |
| 1778072658 | 26.67° C | 36% | 1003.9 hPa | - | - | - | - |
| 1778072058 | 26.11° C | 37% | 1003.8 hPa | - | - | - | - |
| 1778070855 | 26.11° C | 37% | 1003.9 hPa | - | - | - | - |
| 1778069658 | 26.67° C | 37% | 1003.9 hPa | - | - | - | - |
| 1778068454 | 26.11° C | 38% | 1003.9 hPa | - | - | - | - |
| 1778067854 | 26.11° C | 37% | 1003.9 hPa | - | - | - | - |
| 1778066654 | 25.56° C | 38% | 1004 hPa | - | - | - | - |
| 1778066054 | 25.56° C | 39% | 1004 hPa | - | - | - | - |
| 1778065458 | 25° C | 39% | 1003.9 hPa | - | - | - | - |
| 1778063054 | 25° C | 40% | 1004.1 hPa | - | - | - | - |
| 1778060058 | 23.33° C | 45% | 1004.1 hPa | - | - | - | - |
| 1778059454 | 24.44° C | 43% | 1003.9 hPa | - | - | - | - |
* Rain since midnight (hover to see other rain measurements)
** Current wind speed in m/s (hover to see current wind gust speed)